createdAt,value
2024-01-11T00:00:48.369Z,77.27
2024-01-11T00:03:15.887Z,79.00
2024-01-11T00:05:43.325Z,75.60
2024-01-11T00:08:10.127Z,79.07
2024-01-11T00:10:36.945Z,78.53
2024-01-11T00:13:03.783Z,76.40
2024-01-11T00:15:30.591Z,77.33
2024-01-11T00:17:57.398Z,76.23
2024-01-11T00:20:24.231Z,77.87
2024-01-11T00:22:51.006Z,77.60
2024-01-11T00:25:17.720Z,80.23
2024-01-11T00:27:44.361Z,77.40
2024-01-11T00:30:11.222Z,78.77
2024-01-11T00:32:38.044Z,75.40
2024-01-11T00:35:05.057Z,76.50
2024-01-11T00:37:31.799Z,76.30
2024-01-11T00:39:58.465Z,71.07
2024-01-11T00:42:25.187Z,79.33
2024-01-11T00:44:52.010Z,72.50
2024-01-11T00:47:18.758Z,76.47
2024-01-11T00:49:45.482Z,73.73
2024-01-11T00:52:15.155Z,72.57
2024-01-11T00:54:42.318Z,69.97
2024-01-11T00:57:09.140Z,75.07
2024-01-11T00:59:35.876Z,72.40
2024-01-11T01:02:02.854Z,75.30
2024-01-11T01:04:31.599Z,74.23
2024-01-11T01:06:58.793Z,75.93
2024-01-11T01:09:25.594Z,74.20
2024-01-11T01:11:52.432Z,71.40
2024-01-11T01:14:19.104Z,76.80
2024-01-11T01:16:45.880Z,73.63
2024-01-11T01:19:12.695Z,75.50
2024-01-11T01:21:39.361Z,75.70
2024-01-11T01:24:06.197Z,78.03
2024-01-11T01:26:32.883Z,75.07
2024-01-11T01:28:59.623Z,82.77
2024-01-11T01:31:26.284Z,77.57
2024-01-11T01:33:52.989Z,77.90
2024-01-11T01:36:19.698Z,82.37
2024-01-11T01:38:46.787Z,79.77
2024-01-11T01:41:13.463Z,81.57
2024-01-11T01:43:40.129Z,76.60
2024-01-11T01:46:07.116Z,78.67
2024-01-11T01:48:34.101Z,75.70
2024-01-11T01:51:01.033Z,73.30
2024-01-11T01:53:29.820Z,79.43
2024-01-11T01:55:56.876Z,81.37
2024-01-11T01:58:23.750Z,80.63
2024-01-11T02:00:51.856Z,83.07
2024-01-11T02:03:18.960Z,79.57
2024-01-11T02:05:45.931Z,82.03
2024-01-11T02:08:16.619Z,77.87
2024-01-11T02:10:43.342Z,72.30
2024-01-11T02:13:11.050Z,74.47
2024-01-11T02:15:38.060Z,74.67
2024-01-11T02:18:04.984Z,77.23
2024-01-11T02:20:32.370Z,77.00
2024-01-11T02:23:02.636Z,72.80
2024-01-11T02:25:29.363Z,79.87
2024-01-11T02:27:55.983Z,73.20
2024-01-11T02:30:22.694Z,77.37
2024-01-11T02:32:50.400Z,72.60
2024-01-11T02:35:17.646Z,75.20
2024-01-11T02:37:44.978Z,74.80
2024-01-11T02:40:12.128Z,75.30
2024-01-11T02:42:38.905Z,73.30
2024-01-11T02:45:05.823Z,75.63
2024-01-11T02:47:33.093Z,76.97
2024-01-11T02:50:00.163Z,81.27
2024-01-11T02:52:26.898Z,77.97
2024-01-11T02:54:53.570Z,72.43
2024-01-11T02:57:20.186Z,75.07
2024-01-11T02:59:47.176Z,71.27
2024-01-11T03:02:13.852Z,72.27
2024-01-11T03:04:40.770Z,71.93
2024-01-11T03:07:07.406Z,71.53
2024-01-11T03:09:35.415Z,73.03
2024-01-11T03:12:02.116Z,73.20
2024-01-11T03:14:28.790Z,70.80
2024-01-11T03:16:55.477Z,73.70
2024-01-11T03:19:22.229Z,72.23
2024-01-11T03:21:49.035Z,74.47
2024-01-11T03:24:15.700Z,76.97
2024-01-11T03:26:42.640Z,72.17
2024-01-11T03:29:09.473Z,70.67
2024-01-11T03:31:36.182Z,74.63
2024-01-11T03:34:03.092Z,74.87
2024-01-11T03:36:29.879Z,71.90
2024-01-11T03:38:56.527Z,73.80
2024-01-11T03:41:23.242Z,80.20
2024-01-11T03:43:51.451Z,71.43
2024-01-11T03:46:18.167Z,76.93
2024-01-11T03:48:44.908Z,71.17
2024-01-11T03:51:11.576Z,78.47
2024-01-11T03:53:39.155Z,77.20
2024-01-11T03:56:06.174Z,71.93
2024-01-11T03:58:33.393Z,73.23
2024-01-11T04:01:01.122Z,71.10
2024-01-11T04:03:27.831Z,71.00
2024-01-11T04:05:54.689Z,71.63
2024-01-11T04:08:21.458Z,70.00
2024-01-11T04:10:48.099Z,68.77
2024-01-11T04:13:14.769Z,67.17
2024-01-11T04:15:41.398Z,70.17
2024-01-11T04:18:08.165Z,69.23
2024-01-11T04:20:35.384Z,75.13
2024-01-11T04:23:02.175Z,71.53
2024-01-11T04:25:28.890Z,75.47
2024-01-11T04:27:55.857Z,73.50
2024-01-11T04:30:22.542Z,74.33
2024-01-11T04:32:49.486Z,69.13
2024-01-11T04:35:16.421Z,69.87
2024-01-11T04:37:43.037Z,72.90
2024-01-11T04:40:09.998Z,75.03
2024-01-11T04:42:36.790Z,69.57
2024-01-11T04:45:03.660Z,72.20
2024-01-11T04:47:30.634Z,68.77
2024-01-11T04:49:57.544Z,70.00
2024-01-11T04:52:24.203Z,65.90
2024-01-11T04:54:50.847Z,70.70
2024-01-11T04:57:18.062Z,68.67
2024-01-11T04:59:44.751Z,70.87
2024-01-11T05:02:11.679Z,67.80
2024-01-11T05:04:38.524Z,58.40
2024-01-11T05:07:05.386Z,56.40
2024-01-11T05:09:32.000Z,58.30
2024-01-11T05:11:58.706Z,56.87
2024-01-11T05:14:25.466Z,56.50
2024-01-11T05:16:52.175Z,60.37
2024-01-11T05:19:19.146Z,57.43
2024-01-11T05:21:45.784Z,62.20
2024-01-11T05:24:12.554Z,58.97
2024-01-11T05:26:39.446Z,58.13
2024-01-11T05:29:06.484Z,53.70
2024-01-11T05:31:33.480Z,54.90
2024-01-11T05:34:00.624Z,56.87
2024-01-11T05:36:27.351Z,55.03
2024-01-11T05:38:54.064Z,52.03
2024-01-11T05:41:20.753Z,55.07
2024-01-11T05:43:47.636Z,59.03
2024-01-11T05:46:14.493Z,54.30
2024-01-11T05:48:41.451Z,55.13
2024-01-11T05:51:09.334Z,55.90
2024-01-11T05:53:37.234Z,52.10
2024-01-11T05:56:08.848Z,52.47
2024-01-11T05:58:35.708Z,56.72
2024-01-11T06:01:02.540Z,57.53
2024-01-11T06:03:29.574Z,59.17
2024-01-11T06:05:56.443Z,54.20
2024-01-11T06:08:23.356Z,51.50
2024-01-11T06:10:50.215Z,58.47
2024-01-11T06:13:16.919Z,56.17
2024-01-11T06:15:43.921Z,51.93
2024-01-11T06:18:10.885Z,52.53
2024-01-11T06:20:37.735Z,56.00
2024-01-11T06:23:04.528Z,54.53
2024-01-11T06:25:31.235Z,52.37
2024-01-11T06:27:57.896Z,53.20
2024-01-11T06:30:24.613Z,55.73
2024-01-11T06:32:51.506Z,50.77
2024-01-11T06:35:18.324Z,51.27
2024-01-11T06:37:45.056Z,52.67
2024-01-11T06:40:11.990Z,57.33
2024-01-11T06:42:38.641Z,51.13
2024-01-11T06:45:05.487Z,53.33
2024-01-11T06:47:32.364Z,55.03
2024-01-11T06:49:59.333Z,54.47
2024-01-11T06:52:26.597Z,52.80
2024-01-11T06:54:53.381Z,53.40
2024-01-11T06:57:20.132Z,50.23
2024-01-11T06:59:47.889Z,55.13
2024-01-11T07:02:15.097Z,56.23
2024-01-11T07:04:44.991Z,49.10
2024-01-11T07:07:11.809Z,49.30
2024-01-11T07:09:38.412Z,51.70
2024-01-11T07:12:05.213Z,48.80
2024-01-11T07:14:31.935Z,50.17
2024-01-11T07:16:58.726Z,47.73
2024-01-11T07:19:25.499Z,50.20
2024-01-11T07:21:52.241Z,51.37
2024-01-11T07:24:19.856Z,48.80
2024-01-11T07:26:46.751Z,50.47
2024-01-11T07:29:13.540Z,49.77
2024-01-11T07:31:40.301Z,47.93
2024-01-11T07:34:07.142Z,52.67
2024-01-11T07:36:33.942Z,53.97
2024-01-11T07:39:00.924Z,50.83
2024-01-11T07:41:27.719Z,51.47
2024-01-11T07:43:55.510Z,53.00
2024-01-11T07:46:32.305Z,52.17
2024-01-11T07:49:06.560Z,52.70
2024-01-11T07:51:34.118Z,50.67
2024-01-11T07:54:00.837Z,53.63
2024-01-11T07:56:27.636Z,53.43
2024-01-11T07:58:54.610Z,50.70
2024-01-11T08:01:21.387Z,59.67
2024-01-11T08:03:49.119Z,56.93
2024-01-11T08:06:16.232Z,55.07
2024-01-11T08:08:43.169Z,51.30
2024-01-11T08:11:10.051Z,59.70
2024-01-11T08:13:39.196Z,57.37
2024-01-11T08:16:08.660Z,55.93
2024-01-11T08:18:35.586Z,59.40
2024-01-11T08:21:02.465Z,61.83
2024-01-11T08:23:29.192Z,63.27
2024-01-11T08:25:55.896Z,60.20
2024-01-11T08:28:22.607Z,59.47
2024-01-11T08:30:49.467Z,61.73
2024-01-11T08:33:16.356Z,60.07
2024-01-11T08:35:43.606Z,54.37
2024-01-11T08:38:10.849Z,56.80
2024-01-11T08:40:37.706Z,53.67
2024-01-11T08:43:04.610Z,59.83
2024-01-11T08:45:32.435Z,57.70
2024-01-11T08:47:59.422Z,58.53
2024-01-11T08:50:28.537Z,58.50
2024-01-11T08:52:57.278Z,59.97
2024-01-11T08:55:24.483Z,57.03
2024-01-11T08:57:51.425Z,57.27
2024-01-11T09:00:19.613Z,58.57
2024-01-11T09:02:47.575Z,61.67
2024-01-11T09:05:17.375Z,64.37
2024-01-11T09:07:44.292Z,58.10
2024-01-11T09:10:12.718Z,58.60
2024-01-11T09:12:39.752Z,58.27
2024-01-11T09:15:07.135Z,61.40
2024-01-11T09:17:34.200Z,60.33
2024-01-11T09:20:01.520Z,61.93
2024-01-11T09:22:29.343Z,58.77
2024-01-11T09:24:56.368Z,56.53
2024-01-11T09:27:23.820Z,60.07
2024-01-11T09:29:53.264Z,63.57
2024-01-11T09:34:49.412Z,58.30
2024-01-11T09:37:16.125Z,58.77
2024-01-11T09:39:43.896Z,62.73
2024-01-11T09:42:11.686Z,55.80
2024-01-11T09:44:40.223Z,58.60
2024-01-11T09:47:07.794Z,58.40
2024-01-11T09:49:35.005Z,53.27
2024-01-11T09:52:02.793Z,59.27
2024-01-11T09:54:29.568Z,55.47
2024-01-11T09:56:58.021Z,57.03
2024-01-11T09:59:25.240Z,58.33
2024-01-11T10:01:52.312Z,61.07
2024-01-11T10:04:19.048Z,56.60
2024-01-11T10:06:46.555Z,57.83
2024-01-11T10:09:14.430Z,56.97
2024-01-11T10:11:41.319Z,62.67
2024-01-11T10:14:08.140Z,58.63
2024-01-11T10:16:34.898Z,57.20
2024-01-11T10:19:01.688Z,55.30
2024-01-11T10:21:31.807Z,56.80
2024-01-11T10:23:58.809Z,58.67
2024-01-11T10:26:25.676Z,57.87
2024-01-11T10:28:52.399Z,57.73
2024-01-11T10:31:19.529Z,53.20
2024-01-11T10:33:46.872Z,55.13
2024-01-11T10:36:13.633Z,57.57
2024-01-11T10:38:41.070Z,53.67
2024-01-11T10:41:08.289Z,57.53
2024-01-11T10:43:39.060Z,56.53
2024-01-11T10:46:08.082Z,57.93
2024-01-11T10:48:36.899Z,61.70
2024-01-11T10:51:07.351Z,53.83
2024-01-11T10:53:36.827Z,58.93
2024-01-11T10:56:05.439Z,54.50
2024-01-11T10:58:32.630Z,53.30
2024-01-11T11:01:00.615Z,54.27
2024-01-11T11:03:27.700Z,56.30
2024-01-11T11:05:55.087Z,55.73
2024-01-11T11:08:22.048Z,56.07
2024-01-11T11:10:49.395Z,54.37
2024-01-11T11:13:16.775Z,59.07
2024-01-11T11:15:48.345Z,55.50
2024-01-11T11:18:15.453Z,57.42
2024-01-11T11:20:45.262Z,55.90
2024-01-11T11:23:13.392Z,51.63
2024-01-11T11:25:43.783Z,53.53
2024-01-11T11:28:12.421Z,52.93
2024-01-11T11:30:45.885Z,53.97
2024-01-11T11:33:19.697Z,54.23
2024-01-11T11:35:49.828Z,52.27
2024-01-11T11:38:20.346Z,54.03
2024-01-11T11:40:47.816Z,53.20
2024-01-11T11:43:15.402Z,55.30
2024-01-11T11:45:42.713Z,52.17
2024-01-11T11:48:28.632Z,49.00
2024-01-11T11:51:23.109Z,50.80
2024-01-11T11:53:51.881Z,53.07
2024-01-11T11:56:19.579Z,46.53
2024-01-11T11:58:46.925Z,49.43
2024-01-11T12:01:16.232Z,49.00
2024-01-11T12:03:44.093Z,49.23
2024-01-11T12:06:12.258Z,48.03
2024-01-11T12:08:39.310Z,52.17
2024-01-11T12:11:06.903Z,51.37
2024-01-11T12:13:33.878Z,46.73
2024-01-11T12:16:00.653Z,46.47
2024-01-11T12:18:27.510Z,44.67
2024-01-11T12:20:57.204Z,48.87
2024-01-11T12:23:24.119Z,47.33
2024-01-11T12:25:50.808Z,47.80
2024-01-11T12:28:18.478Z,47.50
2024-01-11T12:30:46.317Z,45.57
2024-01-11T12:33:13.693Z,47.87
2024-01-11T12:35:40.810Z,50.00
2024-01-11T12:38:07.918Z,49.13
2024-01-11T12:40:39.046Z,46.60
2024-01-11T12:43:06.208Z,48.90
2024-01-11T12:45:33.822Z,45.53
2024-01-11T12:48:01.584Z,48.83
2024-01-11T12:50:29.098Z,46.70
2024-01-11T12:53:21.607Z,49.47
2024-01-11T12:55:55.151Z,41.50
2024-01-11T12:58:27.645Z,44.60
2024-01-11T13:00:55.420Z,48.27
2024-01-11T13:03:22.467Z,46.57
2024-01-11T13:05:50.251Z,44.63
2024-01-11T13:08:19.505Z,45.30
2024-01-11T13:10:49.590Z,45.70
2024-01-11T13:13:16.713Z,45.50
2024-01-11T13:15:43.501Z,45.87
2024-01-11T13:18:10.920Z,45.23
2024-01-11T13:20:37.824Z,46.60
2024-01-11T13:23:15.351Z,42.70
2024-01-11T13:25:45.764Z,43.93
2024-01-11T13:28:13.307Z,39.67
2024-01-11T13:30:41.014Z,40.70
2024-01-11T13:33:09.501Z,44.20
2024-01-11T13:35:36.890Z,43.50
2024-01-11T13:38:04.297Z,38.73
2024-01-11T13:40:31.753Z,42.90
2024-01-11T13:42:59.363Z,41.17
2024-01-11T13:45:26.975Z,41.30
2024-01-11T13:47:56.943Z,40.37
2024-01-11T13:50:25.831Z,39.70
2024-01-11T13:52:53.199Z,41.67
2024-01-11T13:55:23.061Z,41.60
2024-01-11T13:57:50.931Z,41.60
2024-01-11T14:00:20.196Z,38.00
2024-01-11T14:02:48.618Z,39.20
2024-01-11T14:05:19.215Z,36.00
2024-01-11T14:07:47.139Z,38.40
2024-01-11T14:10:14.543Z,40.73
2024-01-11T14:12:41.691Z,37.13
2024-01-11T14:15:13.006Z,40.80
2024-01-11T14:17:40.417Z,38.60
2024-01-11T14:20:13.335Z,35.43
2024-01-11T14:22:41.505Z,34.63
2024-01-11T14:25:08.509Z,36.47
2024-01-11T14:27:35.236Z,34.67
2024-01-11T14:30:01.886Z,37.43
2024-01-11T14:32:36.030Z,37.93
2024-01-11T14:35:06.222Z,36.30
2024-01-11T14:37:33.947Z,37.43
2024-01-11T14:40:01.055Z,34.07
2024-01-11T14:42:28.448Z,33.37
2024-01-11T14:44:55.633Z,36.03
2024-01-11T14:47:23.181Z,34.63
2024-01-11T14:49:50.302Z,32.57
2024-01-11T14:52:18.456Z,35.67
2024-01-11T14:54:45.747Z,35.83
2024-01-11T14:57:14.481Z,34.73
2024-01-11T14:59:41.458Z,35.33
2024-01-11T15:02:08.564Z,33.90
2024-01-11T15:04:35.458Z,31.97
2024-01-11T15:07:02.206Z,33.53
2024-01-11T15:09:29.066Z,30.90
2024-01-11T15:11:55.761Z,34.07
2024-01-11T15:14:22.583Z,31.60
2024-01-11T15:16:49.839Z,31.33
2024-01-11T15:19:16.801Z,35.37
2024-01-11T15:21:49.004Z,31.57
2024-01-11T15:24:20.685Z,31.70
2024-01-11T15:26:50.231Z,32.70
2024-01-11T15:29:18.281Z,35.47
2024-01-11T15:31:47.840Z,34.20
2024-01-11T15:34:16.315Z,35.20
2024-01-11T15:36:43.803Z,33.70
2024-01-11T15:39:20.972Z,30.43
2024-01-11T15:41:55.768Z,32.80
2024-01-11T15:44:24.016Z,36.37
2024-01-11T15:46:51.032Z,33.40
2024-01-11T15:49:17.902Z,33.57
2024-01-11T15:51:45.449Z,34.23
2024-01-11T15:54:12.735Z,32.93
2024-01-11T15:56:39.558Z,33.80
2024-01-11T15:59:09.678Z,34.57
2024-01-11T16:04:06.803Z,30.40
2024-01-11T16:06:33.674Z,31.17
2024-01-11T16:09:00.495Z,26.67
2024-01-11T16:11:27.203Z,30.60
2024-01-11T16:13:54.056Z,30.63
2024-01-11T16:16:20.794Z,32.67
2024-01-11T16:18:47.715Z,32.20
2024-01-11T16:21:14.489Z,33.97
2024-01-11T16:23:41.360Z,35.13
2024-01-11T16:26:09.405Z,30.87
2024-01-11T16:28:36.409Z,31.60
2024-01-11T16:31:05.092Z,30.97
2024-01-11T16:33:32.112Z,29.63
2024-01-11T16:35:59.584Z,30.50
2024-01-11T16:38:26.702Z,29.13
2024-01-11T16:40:55.828Z,28.60
2024-01-11T16:43:22.868Z,29.73
2024-01-11T16:45:50.561Z,29.80
2024-01-11T16:48:18.578Z,31.50
2024-01-11T16:50:46.096Z,29.73
2024-01-11T16:53:13.071Z,31.43
2024-01-11T16:55:42.336Z,29.90
2024-01-11T16:58:12.608Z,30.37
2024-01-11T17:00:41.446Z,29.67
2024-01-11T17:03:08.453Z,27.07
2024-01-11T17:05:35.837Z,26.17
2024-01-11T17:08:04.664Z,27.60
2024-01-11T17:10:31.643Z,27.00
2024-01-11T17:12:58.455Z,29.23
2024-01-11T17:15:28.051Z,28.53
2024-01-11T17:17:55.080Z,29.47
2024-01-11T17:20:22.030Z,28.23
2024-01-11T17:22:50.852Z,27.23
2024-01-11T17:25:18.313Z,30.60
2024-01-11T17:27:45.094Z,29.27
2024-01-11T17:30:12.151Z,29.03
2024-01-11T17:32:39.535Z,27.03
2024-01-11T17:35:07.126Z,28.97
2024-01-11T17:37:33.822Z,26.37
2024-01-11T17:40:00.695Z,27.40
2024-01-11T17:42:27.375Z,28.13
2024-01-11T17:44:54.385Z,24.80
2024-01-11T17:47:21.113Z,28.53
2024-01-11T17:49:47.986Z,29.47
2024-01-11T17:52:14.801Z,26.83
2024-01-11T17:54:41.494Z,26.03
2024-01-11T17:57:08.800Z,25.23
2024-01-11T17:59:35.552Z,29.83
2024-01-11T18:02:02.716Z,26.80
2024-01-11T18:04:29.513Z,26.67
2024-01-11T18:06:56.561Z,29.23
2024-01-11T18:09:23.367Z,24.90
2024-01-11T18:11:50.578Z,27.27
2024-01-11T18:14:18.046Z,23.43
2024-01-11T18:16:46.344Z,24.83
2024-01-11T18:19:15.067Z,25.10
2024-01-11T18:21:42.191Z,24.43
2024-01-11T18:24:08.900Z,22.77
2024-01-11T18:26:36.624Z,22.10
2024-01-11T18:29:03.526Z,23.63
2024-01-11T18:31:30.659Z,26.37
2024-01-11T18:33:57.458Z,22.23
2024-01-11T18:36:24.863Z,24.40
2024-01-11T18:38:54.383Z,25.33
2024-01-11T18:41:22.475Z,20.90
2024-01-11T18:43:49.354Z,21.10
2024-01-11T18:46:16.384Z,45.50
2024-01-11T18:48:44.248Z,67.70
2024-01-11T18:51:11.236Z,36.37
2024-01-11T18:53:37.946Z,33.97
2024-01-11T18:56:04.914Z,41.57
2024-01-11T18:58:31.633Z,26.17
2024-01-11T19:00:58.635Z,36.87
2024-01-11T19:03:25.522Z,35.47
2024-01-11T19:05:52.672Z,40.20
2024-01-11T19:08:19.597Z,28.10
2024-01-11T19:10:46.416Z,36.50
2024-01-11T19:13:13.077Z,43.70
2024-01-11T19:15:39.933Z,39.97
2024-01-11T19:18:10.276Z,41.37
2024-01-11T19:20:37.241Z,27.60
2024-01-11T19:23:04.661Z,24.80
2024-01-11T19:25:33.423Z,30.40
2024-01-11T19:28:03.477Z,26.20
2024-01-11T19:30:32.986Z,22.97
2024-01-11T19:32:59.902Z,25.30
2024-01-11T19:35:26.752Z,22.30
2024-01-11T19:37:54.620Z,23.20
2024-01-11T19:40:21.563Z,23.23
2024-01-11T19:42:48.391Z,22.07
2024-01-11T19:45:15.677Z,23.77
2024-01-11T19:47:42.634Z,23.33
2024-01-11T19:50:12.747Z,22.77
2024-01-11T19:52:39.478Z,22.97
2024-01-11T19:55:06.361Z,24.70
2024-01-11T19:57:33.557Z,23.67
2024-01-11T20:00:00.962Z,23.43
2024-01-11T20:02:27.882Z,21.70
2024-01-11T20:04:56.737Z,20.37
2024-01-11T20:07:25.437Z,19.93
2024-01-11T20:09:52.159Z,20.23
2024-01-11T20:12:21.932Z,19.10
2024-01-11T20:14:49.333Z,24.73
2024-01-11T20:17:16.670Z,24.27
2024-01-11T20:19:43.511Z,21.83
2024-01-11T20:22:10.408Z,20.30
2024-01-11T20:24:37.628Z,19.77
2024-01-11T20:27:06.202Z,23.20
2024-01-11T20:29:33.150Z,20.80
2024-01-11T20:32:00.110Z,20.57
2024-01-11T20:34:26.915Z,21.67
2024-01-11T20:36:53.752Z,22.20
2024-01-11T20:39:20.473Z,21.30
2024-01-11T20:41:47.312Z,19.90
2024-01-11T20:44:14.425Z,18.20
2024-01-11T20:46:41.229Z,20.20
2024-01-11T20:49:07.966Z,20.50
2024-01-11T20:51:34.761Z,19.13
2024-01-11T20:54:02.529Z,20.83
2024-01-11T20:56:31.821Z,21.13
2024-01-11T20:58:58.663Z,20.53
2024-01-11T21:01:25.561Z,20.70
2024-01-11T21:03:52.332Z,22.67
2024-01-11T21:06:19.340Z,23.00
2024-01-11T21:08:46.283Z,21.00
2024-01-11T21:11:14.292Z,21.07
2024-01-11T21:13:41.055Z,21.33
2024-01-11T21:16:07.776Z,19.47
2024-01-11T21:18:35.283Z,23.13
2024-01-11T21:21:03.143Z,21.13
2024-01-11T21:23:29.981Z,19.37
2024-01-11T21:25:57.518Z,18.30
2024-01-11T21:28:24.331Z,20.47
2024-01-11T21:30:51.230Z,20.23
2024-01-11T21:33:18.235Z,19.33
2024-01-11T21:35:45.250Z,20.23
2024-01-11T21:38:12.204Z,20.00
2024-01-11T21:40:40.956Z,20.03
2024-01-11T21:43:08.920Z,20.07
2024-01-11T21:45:35.867Z,18.30
2024-01-11T21:48:02.593Z,21.23
2024-01-11T21:50:32.456Z,19.93
2024-01-11T21:52:59.231Z,20.40
2024-01-11T21:55:26.275Z,19.13
2024-01-11T21:57:53.147Z,19.93
2024-01-11T22:00:20.086Z,18.93
2024-01-11T22:02:47.095Z,21.10
2024-01-11T22:05:17.248Z,18.70
2024-01-11T22:07:43.896Z,20.77
2024-01-11T22:10:10.630Z,19.50
2024-01-11T22:12:37.395Z,18.10
2024-01-11T22:15:07.611Z,19.13
2024-01-11T22:17:36.007Z,19.20
2024-01-11T22:20:02.825Z,17.37
2024-01-11T22:22:29.665Z,17.57
2024-01-11T22:24:56.286Z,18.70
2024-01-11T22:27:23.044Z,19.93
2024-01-11T22:29:49.792Z,17.90
2024-01-11T22:32:16.631Z,18.93
2024-01-11T22:34:43.355Z,17.23
2024-01-11T22:37:10.169Z,19.57
2024-01-11T22:39:36.811Z,17.47
2024-01-11T22:42:05.011Z,17.53
2024-01-11T22:44:31.849Z,17.13
2024-01-11T22:46:58.856Z,19.13
2024-01-11T22:49:25.685Z,17.47
2024-01-11T22:51:52.376Z,15.90
2024-01-11T22:54:19.598Z,14.53
2024-01-11T22:56:47.609Z,15.87
2024-01-11T22:59:14.493Z,15.20
2024-01-11T23:01:44.363Z,15.37
2024-01-11T23:04:11.157Z,14.47
2024-01-11T23:06:37.978Z,14.63
2024-01-11T23:09:04.755Z,15.00
2024-01-11T23:11:31.513Z,15.00
2024-01-11T23:13:58.459Z,15.93
2024-01-11T23:16:25.286Z,16.17
2024-01-11T23:18:52.138Z,15.17
2024-01-11T23:21:19.009Z,14.87
2024-01-11T23:23:45.639Z,15.00
2024-01-11T23:26:12.482Z,14.10
2024-01-11T23:28:39.214Z,13.90
2024-01-11T23:31:07.389Z,12.90
2024-01-11T23:33:34.471Z,12.50
2024-01-11T23:36:01.367Z,11.67
2024-01-11T23:38:28.216Z,11.90
2024-01-11T23:40:54.862Z,12.13
2024-01-11T23:43:21.630Z,10.43
2024-01-11T23:45:48.434Z,10.77
2024-01-11T23:48:15.228Z,12.13
2024-01-11T23:50:42.168Z,12.70
2024-01-11T23:53:09.066Z,10.67
2024-01-11T23:55:35.744Z,10.53
2024-01-11T23:58:02.507Z,9.73
